Aeroporto :
LOGIN :

Iscrizione | Disclaimer

   EN    FR    IT 

 










Sommario :    VFR   VFR Marginale   IFR   IFR Intensivo   IFR Molto Intensivo
Visibilità : 
Base nubi : 
>= 8 km
>= 3000ft
5 / 8 km
1000 / 3000 ft
1500m / 5 km
500 / 1000 ft
800 / 1500m
200 / 500 ft
< 800m
< 200 ft
Simboli :   Temporali  Nebbia  Neve Forte  Precipitazioni Forti  Vento > 20 kt
SIGMETs :   Varie  Temporali  Ghiacco  Turbolenza  Onda orograficha  Ceneri Vulcaniche






- Altitudine del aeroporto : 425 ft
- Codice IATA : DTM


EDLW - Dortmund

ULTIMO METAR :
  • 071850Z 17006KT CAVOK 11/07 Q1018

METARs OBSOLETI :
  • 071820Z 18005KT CAVOK 11/07 Q1019
  • 071750Z 18005KT CAVOK 12/07 Q1019
  • 071720Z 18005KT CAVOK 13/07 Q1019
  • 071650Z 18004KT CAVOK 13/07 Q1019
  • 071620Z 20007KT CAVOK 15/08 Q1019
  • 071550Z 21007KT CAVOK 16/07 Q1019

TAF TAF EDLW
Valido dal 07 a 18 ore il 08 a 18 ore UTC


071700Z 0718/0818 19005KT CAVOK
BECMG 0719/0722 20010KT
TEMPO 0805/0808 22015KT SHRA BKN010TCU
BECMG 0808/0811 27008KT



MetMap, La meteo Aeronautica in un colpo d'occhio ! - Copyright ORBIFLY Dicembre 2007 - Disclaimer

ORBIFLY MET'MAP TEAM :

Programmazione e sviluppo : Alexandra Zaïnal
Concezione : Baudouin d'Aumeries
Supporto tecnico e logistico : Manuel Goepfert
Aiuto : Marc-Olivier Méhu
Aiuto per la traduzione : Arnaldo La Scala




FONTI E CREDITI :

   NOAA